sensor_id;sensor_type;location;lat;lon;timestamp;P1;durP1;ratioP1;P2;durP2;ratioP2
60935;SDS011;46804;51.786;19.520;2022-10-16T00:02:52;11.82;;;7.72;;
60935;SDS011;46804;51.786;19.520;2022-10-16T00:06:52;15.13;;;8.43;;
60935;SDS011;46804;51.786;19.520;2022-10-16T00:10:58;14.68;;;8.55;;
60935;SDS011;46804;51.786;19.520;2022-10-16T00:15:00;13.90;;;8.77;;
60935;SDS011;46804;51.786;19.520;2022-10-16T00:19:00;14.18;;;9.15;;
60935;SDS011;46804;51.786;19.520;2022-10-16T00:23:01;16.02;;;9.13;;
60935;SDS011;46804;51.786;19.520;2022-10-16T00:27:01;13.75;;;7.97;;
60935;SDS011;46804;51.786;19.520;2022-10-16T00:31:03;17.58;;;10.18;;
60935;SDS011;46804;51.786;19.520;2022-10-16T00:35:07;14.05;;;8.70;;
60935;SDS011;46804;51.786;19.520;2022-10-16T00:39:08;16.90;;;9.55;;
60935;SDS011;46804;51.786;19.520;2022-10-16T00:43:12;17.35;;;9.30;;
60935;SDS011;46804;51.786;19.520;2022-10-16T00:47:33;15.47;;;9.03;;
60935;SDS011;46804;51.786;19.520;2022-10-16T00:55:38;13.13;;;7.85;;
60935;SDS011;46804;51.786;19.520;2022-10-16T00:59:39;15.35;;;8.75;;
60935;SDS011;46804;51.786;19.520;2022-10-16T01:03:41;18.58;;;10.88;;
60935;SDS011;46804;51.786;19.520;2022-10-16T01:07:54;15.20;;;9.65;;
60935;SDS011;46804;51.786;19.520;2022-10-16T01:12:09;14.90;;;9.85;;
60935;SDS011;46804;51.786;19.520;2022-10-16T01:16:20;18.83;;;9.32;;
60935;SDS011;46804;51.786;19.520;2022-10-16T01:20:32;15.77;;;9.50;;
60935;SDS011;46804;51.786;19.520;2022-10-16T01:24:38;14.98;;;8.93;;
60935;SDS011;46804;51.786;19.520;2022-10-16T01:37:02;15.27;;;8.98;;
60935;SDS011;46804;51.786;19.520;2022-10-16T01:41:19;14.13;;;9.30;;
60935;SDS011;46804;51.786;19.520;2022-10-16T01:45:25;14.93;;;8.98;;
60935;SDS011;46804;51.786;19.520;2022-10-16T01:49:29;14.27;;;9.40;;
60935;SDS011;46804;51.786;19.520;2022-10-16T01:53:34;18.67;;;9.77;;
60935;SDS011;46804;51.786;19.520;2022-10-16T01:57:36;17.35;;;9.98;;
60935;SDS011;46804;51.786;19.520;2022-10-16T02:01:40;15.30;;;8.93;;
60935;SDS011;46804;51.786;19.520;2022-10-16T02:05:55;15.02;;;9.57;;
60935;SDS011;46804;51.786;19.520;2022-10-16T02:09:59;17.97;;;9.77;;
60935;SDS011;46804;51.786;19.520;2022-10-16T02:14:04;16.98;;;9.73;;
60935;SDS011;46804;51.786;19.520;2022-10-16T02:18:06;16.45;;;10.02;;
60935;SDS011;46804;51.786;19.520;2022-10-16T02:22:09;19.63;;;9.65;;
60935;SDS011;46804;51.786;19.520;2022-10-16T02:26:17;19.30;;;10.38;;
60935;SDS011;46804;51.786;19.520;2022-10-16T02:34:48;19.83;;;11.23;;
60935;SDS011;46804;51.786;19.520;2022-10-16T02:38:49;19.52;;;11.38;;
60935;SDS011;46804;51.786;19.520;2022-10-16T02:42:51;18.42;;;11.25;;
60935;SDS011;46804;51.786;19.520;2022-10-16T02:46:52;19.30;;;11.55;;
60935;SDS011;46804;51.786;19.520;2022-10-16T02:50:53;18.05;;;11.63;;
60935;SDS011;46804;51.786;19.520;2022-10-16T02:54:54;20.02;;;11.50;;
60935;SDS011;46804;51.786;19.520;2022-10-16T02:58:54;18.45;;;11.50;;
60935;SDS011;46804;51.786;19.520;2022-10-16T03:02:55;20.48;;;11.30;;
60935;SDS011;46804;51.786;19.520;2022-10-16T03:06:55;21.65;;;13.13;;
60935;SDS011;46804;51.786;19.520;2022-10-16T03:10:56;22.90;;;12.90;;
60935;SDS011;46804;51.786;19.520;2022-10-16T03:14:56;18.85;;;11.25;;
60935;SDS011;46804;51.786;19.520;2022-10-16T03:18:57;22.42;;;12.85;;
60935;SDS011;46804;51.786;19.520;2022-10-16T03:22:58;19.80;;;11.35;;
60935;SDS011;46804;51.786;19.520;2022-10-16T03:26:58;21.17;;;12.43;;
60935;SDS011;46804;51.786;19.520;2022-10-16T03:30:59;20.52;;;12.57;;
60935;SDS011;46804;51.786;19.520;2022-10-16T03:34:59;26.75;;;13.60;;
60935;SDS011;46804;51.786;19.520;2022-10-16T03:39:00;21.98;;;13.27;;
60935;SDS011;46804;51.786;19.520;2022-10-16T03:43:00;23.00;;;12.63;;
60935;SDS011;46804;51.786;19.520;2022-10-16T03:47:01;24.67;;;13.88;;
60935;SDS011;46804;51.786;19.520;2022-10-16T03:51:02;22.15;;;14.65;;
60935;SDS011;46804;51.786;19.520;2022-10-16T03:55:02;22.35;;;13.57;;
60935;SDS011;46804;51.786;19.520;2022-10-16T03:59:03;25.15;;;13.75;;
60935;SDS011;46804;51.786;19.520;2022-10-16T04:03:04;22.67;;;13.40;;
60935;SDS011;46804;51.786;19.520;2022-10-16T04:07:04;27.73;;;14.07;;
60935;SDS011;46804;51.786;19.520;2022-10-16T04:11:05;24.27;;;13.90;;
60935;SDS011;46804;51.786;19.520;2022-10-16T04:15:05;23.77;;;13.00;;
60935;SDS011;46804;51.786;19.520;2022-10-16T04:19:06;25.35;;;14.10;;
60935;SDS011;46804;51.786;19.520;2022-10-16T04:23:07;27.35;;;14.25;;
60935;SDS011;46804;51.786;19.520;2022-10-16T04:27:07;27.55;;;16.42;;
60935;SDS011;46804;51.786;19.520;2022-10-16T04:31:08;24.95;;;14.75;;
60935;SDS011;46804;51.786;19.520;2022-10-16T04:35:08;26.90;;;13.55;;
60935;SDS011;46804;51.786;19.520;2022-10-16T04:39:09;28.08;;;14.70;;
60935;SDS011;46804;51.786;19.520;2022-10-16T04:43:09;27.45;;;14.65;;
60935;SDS011;46804;51.786;19.520;2022-10-16T04:47:10;25.00;;;14.48;;
60935;SDS011;46804;51.786;19.520;2022-10-16T04:51:11;26.38;;;13.93;;
60935;SDS011;46804;51.786;19.520;2022-10-16T04:55:11;27.05;;;14.13;;
60935;SDS011;46804;51.786;19.520;2022-10-16T04:59:13;22.48;;;13.25;;
60935;SDS011;46804;51.786;19.520;2022-10-16T05:03:14;23.17;;;13.63;;
60935;SDS011;46804;51.786;19.520;2022-10-16T05:07:15;23.30;;;14.18;;
60935;SDS011;46804;51.786;19.520;2022-10-16T05:11:15;21.33;;;12.73;;
60935;SDS011;46804;51.786;19.520;2022-10-16T05:15:16;23.77;;;13.18;;
60935;SDS011;46804;51.786;19.520;2022-10-16T05:19:17;20.60;;;13.07;;
60935;SDS011;46804;51.786;19.520;2022-10-16T05:23:18;24.40;;;12.50;;
60935;SDS011;46804;51.786;19.520;2022-10-16T05:27:18;21.02;;;13.32;;
60935;SDS011;46804;51.786;19.520;2022-10-16T05:31:19;23.42;;;13.27;;
60935;SDS011;46804;51.786;19.520;2022-10-16T05:35:20;25.67;;;12.63;;
60935;SDS011;46804;51.786;19.520;2022-10-16T05:39:21;25.73;;;14.07;;
60935;SDS011;46804;51.786;19.520;2022-10-16T05:43:22;18.80;;;12.10;;
60935;SDS011;46804;51.786;19.520;2022-10-16T05:47:23;20.00;;;12.43;;
60935;SDS011;46804;51.786;19.520;2022-10-16T05:51:23;22.08;;;12.38;;
60935;SDS011;46804;51.786;19.520;2022-10-16T05:55:24;19.00;;;11.40;;
60935;SDS011;46804;51.786;19.520;2022-10-16T05:59:24;21.15;;;12.88;;
60935;SDS011;46804;51.786;19.520;2022-10-16T06:03:25;21.73;;;12.57;;
60935;SDS011;46804;51.786;19.520;2022-10-16T06:07:26;21.00;;;12.13;;
60935;SDS011;46804;51.786;19.520;2022-10-16T06:11:28;18.73;;;11.52;;
60935;SDS011;46804;51.786;19.520;2022-10-16T06:19:31;22.73;;;13.30;;
60935;SDS011;46804;51.786;19.520;2022-10-16T06:23:31;22.67;;;13.52;;
60935;SDS011;46804;51.786;19.520;2022-10-16T06:27:32;21.30;;;12.98;;
60935;SDS011;46804;51.786;19.520;2022-10-16T06:31:33;20.40;;;13.60;;
60935;SDS011;46804;51.786;19.520;2022-10-16T06:35:34;23.98;;;13.27;;
60935;SDS011;46804;51.786;19.520;2022-10-16T06:39:34;22.20;;;13.80;;
60935;SDS011;46804;51.786;19.520;2022-10-16T06:43:37;23.00;;;12.35;;
60935;SDS011;46804;51.786;19.520;2022-10-16T06:48:53;20.75;;;11.00;;
60935;SDS011;46804;51.786;19.520;2022-10-16T06:52:54;18.23;;;10.43;;
60935;SDS011;46804;51.786;19.520;2022-10-16T06:56:54;20.25;;;10.98;;
60935;SDS011;46804;51.786;19.520;2022-10-16T07:00:55;17.83;;;10.05;;
60935;SDS011;46804;51.786;19.520;2022-10-16T07:04:57;17.48;;;10.77;;
60935;SDS011;46804;51.786;19.520;2022-10-16T07:08:57;16.13;;;10.80;;
60935;SDS011;46804;51.786;19.520;2022-10-16T07:12:58;14.50;;;9.82;;
60935;SDS011;46804;51.786;19.520;2022-10-16T07:16:58;17.27;;;11.02;;
60935;SDS011;46804;51.786;19.520;2022-10-16T07:21:09;17.52;;;11.60;;
60935;SDS011;46804;51.786;19.520;2022-10-16T07:25:11;18.60;;;12.70;;
60935;SDS011;46804;51.786;19.520;2022-10-16T07:29:15;18.85;;;11.13;;
60935;SDS011;46804;51.786;19.520;2022-10-16T07:33:18;19.52;;;11.43;;
60935;SDS011;46804;51.786;19.520;2022-10-16T07:37:19;19.17;;;12.45;;
60935;SDS011;46804;51.786;19.520;2022-10-16T07:41:19;18.67;;;10.77;;
60935;SDS011;46804;51.786;19.520;2022-10-16T07:45:20;21.52;;;11.50;;
60935;SDS011;46804;51.786;19.520;2022-10-16T07:49:20;17.40;;;11.57;;
60935;SDS011;46804;51.786;19.520;2022-10-16T07:53:21;19.15;;;10.32;;
60935;SDS011;46804;51.786;19.520;2022-10-16T07:57:21;16.55;;;10.32;;
60935;SDS011;46804;51.786;19.520;2022-10-16T08:01:22;15.98;;;10.45;;
60935;SDS011;46804;51.786;19.520;2022-10-16T08:05:22;15.25;;;10.23;;
60935;SDS011;46804;51.786;19.520;2022-10-16T08:09:23;15.93;;;10.35;;
60935;SDS011;46804;51.786;19.520;2022-10-16T08:13:24;18.08;;;11.02;;
60935;SDS011;46804;51.786;19.520;2022-10-16T08:17:24;15.27;;;9.43;;
60935;SDS011;46804;51.786;19.520;2022-10-16T08:21:25;18.02;;;10.32;;
60935;SDS011;46804;51.786;19.520;2022-10-16T08:25:25;15.85;;;10.25;;
60935;SDS011;46804;51.786;19.520;2022-10-16T08:29:26;15.95;;;9.65;;
60935;SDS011;46804;51.786;19.520;2022-10-16T08:33:26;16.75;;;11.10;;
60935;SDS011;46804;51.786;19.520;2022-10-16T08:37:30;19.75;;;10.88;;
60935;SDS011;46804;51.786;19.520;2022-10-16T08:41:49;17.83;;;10.60;;
60935;SDS011;46804;51.786;19.520;2022-10-16T08:46:07;15.90;;;10.70;;
60935;SDS011;46804;51.786;19.520;2022-10-16T08:50:14;14.98;;;10.02;;
60935;SDS011;46804;51.786;19.520;2022-10-16T08:54:34;16.83;;;9.80;;
60935;SDS011;46804;51.786;19.520;2022-10-16T08:58:40;17.52;;;9.93;;
60935;SDS011;46804;51.786;19.520;2022-10-16T09:02:59;20.73;;;11.65;;
60935;SDS011;46804;51.786;19.520;2022-10-16T09:07:22;13.18;;;9.93;;
60935;SDS011;46804;51.786;19.520;2022-10-16T09:11:35;15.75;;;10.18;;
60935;SDS011;46804;51.786;19.520;2022-10-16T09:15:47;13.27;;;8.82;;
60935;SDS011;46804;51.786;19.520;2022-10-16T09:19:52;14.73;;;9.70;;
60935;SDS011;46804;51.786;19.520;2022-10-16T09:24:00;15.77;;;9.43;;
60935;SDS011;46804;51.786;19.520;2022-10-16T09:28:11;15.07;;;8.93;;
60935;SDS011;46804;51.786;19.520;2022-10-16T09:32:13;18.80;;;9.82;;
60935;SDS011;46804;51.786;19.520;2022-10-16T09:36:17;12.25;;;8.35;;
60935;SDS011;46804;51.786;19.520;2022-10-16T09:44:31;15.60;;;9.10;;
60935;SDS011;46804;51.786;19.520;2022-10-16T09:48:44;16.08;;;8.63;;
60935;SDS011;46804;51.786;19.520;2022-10-16T09:52:49;14.77;;;8.90;;
60935;SDS011;46804;51.786;19.520;2022-10-16T09:56:49;11.38;;;8.07;;
60935;SDS011;46804;51.786;19.520;2022-10-16T10:00:52;13.77;;;8.48;;
60935;SDS011;46804;51.786;19.520;2022-10-16T10:04:54;18.42;;;8.68;;
60935;SDS011;46804;51.786;19.520;2022-10-16T10:13:20;13.98;;;8.20;;
60935;SDS011;46804;51.786;19.520;2022-10-16T10:17:23;11.02;;;7.70;;
60935;SDS011;46804;51.786;19.520;2022-10-16T10:21:25;12.35;;;7.93;;
60935;SDS011;46804;51.786;19.520;2022-10-16T10:25:49;13.95;;;7.95;;
60935;SDS011;46804;51.786;19.520;2022-10-16T10:29:59;11.80;;;7.47;;
60935;SDS011;46804;51.786;19.520;2022-10-16T10:38:23;13.33;;;7.60;;
60935;SDS011;46804;51.786;19.520;2022-10-16T10:42:34;12.23;;;7.57;;
60935;SDS011;46804;51.786;19.520;2022-10-16T10:51:07;9.68;;;6.95;;
60935;SDS011;46804;51.786;19.520;2022-10-16T10:55:23;12.95;;;6.68;;
60935;SDS011;46804;51.786;19.520;2022-10-16T11:08:26;10.85;;;6.88;;
60935;SDS011;46804;51.786;19.520;2022-10-16T11:16:44;10.00;;;6.63;;
60935;SDS011;46804;51.786;19.520;2022-10-16T11:20:51;13.15;;;6.65;;
60935;SDS011;46804;51.786;19.520;2022-10-16T11:29:23;9.48;;;5.60;;
60935;SDS011;46804;51.786;19.520;2022-10-16T11:33:34;9.85;;;5.80;;
60935;SDS011;46804;51.786;19.520;2022-10-16T11:37:41;8.65;;;6.00;;
60935;SDS011;46804;51.786;19.520;2022-10-16T11:46:20;6.88;;;5.15;;
60935;SDS011;46804;51.786;19.520;2022-10-16T11:50:25;9.13;;;5.60;;
60935;SDS011;46804;51.786;19.520;2022-10-16T11:54:43;11.52;;;5.68;;
60935;SDS011;46804;51.786;19.520;2022-10-16T12:03:00;9.00;;;5.10;;
60935;SDS011;46804;51.786;19.520;2022-10-16T12:07:13;7.72;;;4.70;;
60935;SDS011;46804;51.786;19.520;2022-10-16T12:15:29;6.82;;;4.20;;
60935;SDS011;46804;51.786;19.520;2022-10-16T12:19:32;6.82;;;4.50;;
60935;SDS011;46804;51.786;19.520;2022-10-16T12:23:37;9.23;;;5.20;;
60935;SDS011;46804;51.786;19.520;2022-10-16T12:27:39;6.93;;;4.25;;
60935;SDS011;46804;51.786;19.520;2022-10-16T12:31:43;7.05;;;4.40;;
60935;SDS011;46804;51.786;19.520;2022-10-16T12:35:45;7.65;;;4.70;;
60935;SDS011;46804;51.786;19.520;2022-10-16T12:39:47;10.70;;;6.78;;
60935;SDS011;46804;51.786;19.520;2022-10-16T12:43:48;8.45;;;4.97;;
60935;SDS011;46804;51.786;19.520;2022-10-16T12:47:50;9.35;;;4.80;;
60935;SDS011;46804;51.786;19.520;2022-10-16T12:51:54;10.93;;;5.78;;
60935;SDS011;46804;51.786;19.520;2022-10-16T12:56:02;7.50;;;5.50;;
60935;SDS011;46804;51.786;19.520;2022-10-16T13:09:02;9.00;;;5.50;;
60935;SDS011;46804;51.786;19.520;2022-10-16T13:13:27;12.15;;;6.55;;
60935;SDS011;46804;51.786;19.520;2022-10-16T13:22:05;8.25;;;5.25;;
60935;SDS011;46804;51.786;19.520;2022-10-16T13:30:53;11.57;;;5.70;;
60935;SDS011;46804;51.786;19.520;2022-10-16T13:34:55;7.88;;;5.50;;
60935;SDS011;46804;51.786;19.520;2022-10-16T13:39:15;9.90;;;6.07;;
60935;SDS011;46804;51.786;19.520;2022-10-16T13:43:28;9.80;;;6.63;;
60935;SDS011;46804;51.786;19.520;2022-10-16T13:47:34;11.15;;;6.03;;
60935;SDS011;46804;51.786;19.520;2022-10-16T13:51:34;10.18;;;6.55;;
60935;SDS011;46804;51.786;19.520;2022-10-16T13:55:35;8.10;;;5.90;;
60935;SDS011;46804;51.786;19.520;2022-10-16T13:59:36;9.27;;;6.03;;
60935;SDS011;46804;51.786;19.520;2022-10-16T14:03:39;11.07;;;5.97;;
60935;SDS011;46804;51.786;19.520;2022-10-16T14:07:40;8.88;;;5.55;;
60935;SDS011;46804;51.786;19.520;2022-10-16T14:11:46;9.80;;;5.63;;
60935;SDS011;46804;51.786;19.520;2022-10-16T14:15:51;17.95;;;8.63;;
60935;SDS011;46804;51.786;19.520;2022-10-16T14:19:56;9.80;;;6.47;;
60935;SDS011;46804;51.786;19.520;2022-10-16T14:23:58;8.60;;;6.20;;
60935;SDS011;46804;51.786;19.520;2022-10-16T14:32:22;9.35;;;6.10;;
60935;SDS011;46804;51.786;19.520;2022-10-16T14:36:24;10.43;;;6.47;;
60935;SDS011;46804;51.786;19.520;2022-10-16T14:40:28;18.27;;;7.82;;
60935;SDS011;46804;51.786;19.520;2022-10-16T14:44:32;10.45;;;7.22;;
60935;SDS011;46804;51.786;19.520;2022-10-16T14:48:33;23.35;;;10.55;;
60935;SDS011;46804;51.786;19.520;2022-10-16T14:52:34;11.15;;;6.80;;
60935;SDS011;46804;51.786;19.520;2022-10-16T14:56:48;12.98;;;8.00;;
60935;SDS011;46804;51.786;19.520;2022-10-16T15:00:51;16.88;;;8.43;;
60935;SDS011;46804;51.786;19.520;2022-10-16T15:04:52;12.13;;;7.28;;
60935;SDS011;46804;51.786;19.520;2022-10-16T15:08:52;44.22;;;15.45;;
60935;SDS011;46804;51.786;19.520;2022-10-16T15:12:53;28.08;;;12.00;;
60935;SDS011;46804;51.786;19.520;2022-10-16T15:16:54;26.60;;;10.43;;
60935;SDS011;46804;51.786;19.520;2022-10-16T15:20:54;42.92;;;16.63;;
60935;SDS011;46804;51.786;19.520;2022-10-16T15:24:55;52.72;;;19.65;;
60935;SDS011;46804;51.786;19.520;2022-10-16T15:28:55;28.80;;;12.15;;
60935;SDS011;46804;51.786;19.520;2022-10-16T15:32:56;36.90;;;14.75;;
60935;SDS011;46804;51.786;19.520;2022-10-16T15:36:57;29.17;;;15.38;;
60935;SDS011;46804;51.786;19.520;2022-10-16T15:40:58;25.30;;;12.63;;
60935;SDS011;46804;51.786;19.520;2022-10-16T15:44:59;40.00;;;16.67;;
60935;SDS011;46804;51.786;19.520;2022-10-16T15:48:59;51.25;;;19.75;;
60935;SDS011;46804;51.786;19.520;2022-10-16T15:53:01;60.40;;;21.38;;
60935;SDS011;46804;51.786;19.520;2022-10-16T15:57:01;74.55;;;25.58;;
60935;SDS011;46804;51.786;19.520;2022-10-16T16:01:02;58.65;;;24.20;;
60935;SDS011;46804;51.786;19.520;2022-10-16T16:05:04;50.70;;;22.83;;
60935;SDS011;46804;51.786;19.520;2022-10-16T16:09:06;37.08;;;17.08;;
60935;SDS011;46804;51.786;19.520;2022-10-16T16:13:07;58.63;;;25.08;;
60935;SDS011;46804;51.786;19.520;2022-10-16T16:17:07;45.88;;;21.65;;
60935;SDS011;46804;51.786;19.520;2022-10-16T16:21:10;49.13;;;24.55;;
60935;SDS011;46804;51.786;19.520;2022-10-16T16:29:12;33.40;;;18.08;;
60935;SDS011;46804;51.786;19.520;2022-10-16T16:33:14;29.45;;;16.00;;
60935;SDS011;46804;51.786;19.520;2022-10-16T16:37:14;30.38;;;16.58;;
60935;SDS011;46804;51.786;19.520;2022-10-16T16:41:19;27.00;;;15.13;;
60935;SDS011;46804;51.786;19.520;2022-10-16T16:45:21;31.50;;;17.75;;
60935;SDS011;46804;51.786;19.520;2022-10-16T16:49:22;43.60;;;23.48;;
60935;SDS011;46804;51.786;19.520;2022-10-16T16:53:22;32.80;;;20.30;;
60935;SDS011;46804;51.786;19.520;2022-10-16T16:57:23;30.85;;;18.13;;
60935;SDS011;46804;51.786;19.520;2022-10-16T17:01:24;23.08;;;14.05;;
60935;SDS011;46804;51.786;19.520;2022-10-16T17:05:26;30.13;;;18.23;;
60935;SDS011;46804;51.786;19.520;2022-10-16T17:09:27;33.17;;;19.77;;
60935;SDS011;46804;51.786;19.520;2022-10-16T17:13:29;34.80;;;19.92;;
60935;SDS011;46804;51.786;19.520;2022-10-16T17:17:37;28.52;;;15.93;;
60935;SDS011;46804;51.786;19.520;2022-10-16T17:21:38;23.77;;;14.70;;
60935;SDS011;46804;51.786;19.520;2022-10-16T17:25:39;25.05;;;14.32;;
60935;SDS011;46804;51.786;19.520;2022-10-16T17:29:41;39.63;;;29.98;;
60935;SDS011;46804;51.786;19.520;2022-10-16T17:33:42;32.33;;;24.48;;
60935;SDS011;46804;51.786;19.520;2022-10-16T17:37:43;37.63;;;21.77;;
60935;SDS011;46804;51.786;19.520;2022-10-16T17:41:44;33.08;;;19.45;;
60935;SDS011;46804;51.786;19.520;2022-10-16T17:45:45;40.58;;;23.30;;
60935;SDS011;46804;51.786;19.520;2022-10-16T17:49:46;39.67;;;22.77;;
60935;SDS011;46804;51.786;19.520;2022-10-16T17:53:50;44.63;;;25.52;;
60935;SDS011;46804;51.786;19.520;2022-10-16T17:57:52;36.00;;;19.75;;
60935;SDS011;46804;51.786;19.520;2022-10-16T18:01:53;32.20;;;17.10;;
60935;SDS011;46804;51.786;19.520;2022-10-16T18:05:54;28.83;;;17.83;;
60935;SDS011;46804;51.786;19.520;2022-10-16T18:09:55;25.25;;;16.90;;
60935;SDS011;46804;51.786;19.520;2022-10-16T18:13:56;30.00;;;17.75;;
60935;SDS011;46804;51.786;19.520;2022-10-16T18:17:57;26.17;;;15.63;;
60935;SDS011;46804;51.786;19.520;2022-10-16T18:21:58;28.65;;;16.00;;
60935;SDS011;46804;51.786;19.520;2022-10-16T18:25:58;28.15;;;15.90;;
60935;SDS011;46804;51.786;19.520;2022-10-16T18:29:59;26.55;;;16.30;;
60935;SDS011;46804;51.786;19.520;2022-10-16T18:34:00;34.75;;;17.17;;
60935;SDS011;46804;51.786;19.520;2022-10-16T18:38:01;51.78;;;23.15;;
60935;SDS011;46804;51.786;19.520;2022-10-16T18:42:01;49.00;;;23.50;;
60935;SDS011;46804;51.786;19.520;2022-10-16T18:46:03;32.65;;;17.50;;
60935;SDS011;46804;51.786;19.520;2022-10-16T18:50:05;53.30;;;26.77;;
60935;SDS011;46804;51.786;19.520;2022-10-16T18:54:07;51.60;;;25.17;;
60935;SDS011;46804;51.786;19.520;2022-10-16T18:58:08;34.30;;;20.25;;
60935;SDS011;46804;51.786;19.520;2022-10-16T19:02:10;28.48;;;16.50;;
60935;SDS011;46804;51.786;19.520;2022-10-16T19:06:13;28.77;;;17.95;;
60935;SDS011;46804;51.786;19.520;2022-10-16T19:10:14;25.43;;;15.07;;
60935;SDS011;46804;51.786;19.520;2022-10-16T19:14:15;26.05;;;15.73;;
60935;SDS011;46804;51.786;19.520;2022-10-16T19:18:16;25.30;;;16.25;;
60935;SDS011;46804;51.786;19.520;2022-10-16T19:22:16;27.95;;;17.08;;
60935;SDS011;46804;51.786;19.520;2022-10-16T19:26:27;26.92;;;17.10;;
60935;SDS011;46804;51.786;19.520;2022-10-16T19:30:29;26.85;;;15.65;;
60935;SDS011;46804;51.786;19.520;2022-10-16T19:34:30;26.50;;;16.33;;
60935;SDS011;46804;51.786;19.520;2022-10-16T19:38:30;26.92;;;16.77;;
60935;SDS011;46804;51.786;19.520;2022-10-16T19:42:31;25.80;;;16.40;;
60935;SDS011;46804;51.786;19.520;2022-10-16T19:46:33;28.95;;;18.00;;
60935;SDS011;46804;51.786;19.520;2022-10-16T19:50:35;29.63;;;18.85;;
60935;SDS011;46804;51.786;19.520;2022-10-16T19:54:35;27.90;;;16.67;;
60935;SDS011;46804;51.786;19.520;2022-10-16T19:58:38;28.87;;;17.73;;
60935;SDS011;46804;51.786;19.520;2022-10-16T20:02:38;29.50;;;16.83;;
60935;SDS011;46804;51.786;19.520;2022-10-16T20:06:39;30.85;;;17.73;;
60935;SDS011;46804;51.786;19.520;2022-10-16T20:10:46;32.47;;;19.20;;
60935;SDS011;46804;51.786;19.520;2022-10-16T20:14:47;32.00;;;18.15;;
60935;SDS011;46804;51.786;19.520;2022-10-16T20:18:48;28.52;;;17.45;;
60935;SDS011;46804;51.786;19.520;2022-10-16T20:22:50;33.20;;;17.38;;
60935;SDS011;46804;51.786;19.520;2022-10-16T20:26:50;30.17;;;16.15;;
60935;SDS011;46804;51.786;19.520;2022-10-16T20:30:51;24.83;;;16.30;;
60935;SDS011;46804;51.786;19.520;2022-10-16T20:34:51;30.45;;;17.67;;
60935;SDS011;46804;51.786;19.520;2022-10-16T20:38:52;31.90;;;18.10;;
60935;SDS011;46804;51.786;19.520;2022-10-16T20:42:52;32.13;;;18.38;;
60935;SDS011;46804;51.786;19.520;2022-10-16T20:46:53;32.88;;;19.65;;
60935;SDS011;46804;51.786;19.520;2022-10-16T20:50:55;31.48;;;17.33;;
60935;SDS011;46804;51.786;19.520;2022-10-16T20:54:55;34.92;;;18.98;;
60935;SDS011;46804;51.786;19.520;2022-10-16T20:58:56;30.27;;;18.98;;
60935;SDS011;46804;51.786;19.520;2022-10-16T21:02:57;28.55;;;17.77;;
60935;SDS011;46804;51.786;19.520;2022-10-16T21:06:57;26.88;;;17.05;;
60935;SDS011;46804;51.786;19.520;2022-10-16T21:10:58;29.40;;;17.00;;
60935;SDS011;46804;51.786;19.520;2022-10-16T21:14:59;26.33;;;16.42;;
60935;SDS011;46804;51.786;19.520;2022-10-16T21:18:59;27.95;;;17.02;;
60935;SDS011;46804;51.786;19.520;2022-10-16T21:23:02;39.42;;;18.30;;
60935;SDS011;46804;51.786;19.520;2022-10-16T21:27:03;35.08;;;19.48;;
60935;SDS011;46804;51.786;19.520;2022-10-16T21:31:14;34.42;;;18.25;;
60935;SDS011;46804;51.786;19.520;2022-10-16T21:35:18;32.42;;;18.80;;
60935;SDS011;46804;51.786;19.520;2022-10-16T21:39:19;33.85;;;19.25;;
60935;SDS011;46804;51.786;19.520;2022-10-16T21:43:20;43.10;;;21.85;;
60935;SDS011;46804;51.786;19.520;2022-10-16T21:47:20;43.05;;;22.27;;
60935;SDS011;46804;51.786;19.520;2022-10-16T21:51:24;49.13;;;24.10;;
60935;SDS011;46804;51.786;19.520;2022-10-16T21:55:26;34.63;;;18.70;;
60935;SDS011;46804;51.786;19.520;2022-10-16T21:59:26;32.50;;;18.02;;
60935;SDS011;46804;51.786;19.520;2022-10-16T22:03:27;32.33;;;19.33;;
60935;SDS011;46804;51.786;19.520;2022-10-16T22:07:28;29.60;;;16.75;;
60935;SDS011;46804;51.786;19.520;2022-10-16T22:11:30;28.98;;;17.85;;
60935;SDS011;46804;51.786;19.520;2022-10-16T22:15:36;29.25;;;17.13;;
60935;SDS011;46804;51.786;19.520;2022-10-16T22:19:36;27.45;;;16.45;;
60935;SDS011;46804;51.786;19.520;2022-10-16T22:23:37;32.72;;;18.08;;
60935;SDS011;46804;51.786;19.520;2022-10-16T22:27:37;32.85;;;18.45;;
60935;SDS011;46804;51.786;19.520;2022-10-16T22:31:38;31.25;;;18.20;;
60935;SDS011;46804;51.786;19.520;2022-10-16T22:35:39;34.65;;;20.05;;
60935;SDS011;46804;51.786;19.520;2022-10-16T22:39:40;29.00;;;17.48;;
60935;SDS011;46804;51.786;19.520;2022-10-16T22:43:42;28.73;;;17.92;;
60935;SDS011;46804;51.786;19.520;2022-10-16T22:47:44;30.85;;;17.60;;
60935;SDS011;46804;51.786;19.520;2022-10-16T22:51:45;29.80;;;16.48;;
60935;SDS011;46804;51.786;19.520;2022-10-16T22:55:45;29.00;;;17.30;;
60935;SDS011;46804;51.786;19.520;2022-10-16T22:59:46;27.85;;;16.88;;
60935;SDS011;46804;51.786;19.520;2022-10-16T23:03:46;32.05;;;17.08;;
60935;SDS011;46804;51.786;19.520;2022-10-16T23:07:47;27.88;;;16.83;;
60935;SDS011;46804;51.786;19.520;2022-10-16T23:11:49;32.28;;;18.10;;
60935;SDS011;46804;51.786;19.520;2022-10-16T23:15:49;27.95;;;16.52;;
60935;SDS011;46804;51.786;19.520;2022-10-16T23:19:50;28.30;;;16.85;;
60935;SDS011;46804;51.786;19.520;2022-10-16T23:23:51;27.33;;;17.35;;
60935;SDS011;46804;51.786;19.520;2022-10-16T23:27:52;34.22;;;17.98;;
60935;SDS011;46804;51.786;19.520;2022-10-16T23:31:54;28.63;;;17.02;;
60935;SDS011;46804;51.786;19.520;2022-10-16T23:35:55;29.67;;;18.48;;
60935;SDS011;46804;51.786;19.520;2022-10-16T23:39:56;32.75;;;17.13;;
60935;SDS011;46804;51.786;19.520;2022-10-16T23:43:57;28.60;;;17.65;;
60935;SDS011;46804;51.786;19.520;2022-10-16T23:47:57;27.98;;;17.52;;
60935;SDS011;46804;51.786;19.520;2022-10-16T23:51:58;27.90;;;17.83;;
60935;SDS011;46804;51.786;19.520;2022-10-16T23:55:58;28.73;;;17.05;;
60935;SDS011;46804;51.786;19.520;2022-10-16T23:59:59;32.00;;;17.33;;
